Holsbeek, Belgium
Current Conditions -  °F | °C
As of 3:50 PM on Sunday 21 Dec 2014 (Local Time) from EBBR Reporting Station
Broken Clouds Broken Clouds  
Wind Chill: 37°   Ceiling: 1000
Heat Index: 45°   Visibility: 6mi
Dew Point: 43°   Wind: 16mph
Humidity: 93%   Direction: 230°SW
Pressure: 30.3"   Gusts: NA
Location:  50.92°N, 4.76°E
Report Text: EBBR 211450Z 23014KT 9999 SCT007 BKN010 07/06 Q1026 TEMPO 4500 DZ BKN008
Loading
Personal Weather Stations






























Interactive Weather Map New forecast layout! Learn more

10-Day Weather Forecast

Advertisements
Track Severe Weather on mobile